Terminal Aerodrome Forecast
Issued by NWS Sioux Falls, SD

Home | Current Version | Previous Version | Graphics & Text | Print | Product List | Glossary Off
Versions: 1 2 3 4 5 6 7 8 9 10 11 12 13 14 15 16 17 18 19 20 21

000
FTUS43 KFSD 250405 AAA
TAFHON
TAF AMD
KHON 250405Z 2504/2524 VRB04KT P6SM BKN015
     FM251300 09007KT P6SM OVC010
     FM251700 10007KT P6SM BKN020
     FM251900 11008KT P6SM SCT200=

USA.gov is the U.S. government's official web portal to all federal, state and local government web resources and services.